Time;durP1;ratioP1;P1;durP2;ratioP2;P2;SDS_P1;SDS_P2;PMS_P1;PMS_P2;Temp;Humidity;BMP_temperature;BMP_pressure;BME280_temperature;BME280_humidity;BME280_pressure;Samples;Min_cycle;Max_cycle;Signal;HPM_P1;HPM_P2
2022/03/15 00:01:17;;;;;;;104.90;27.73;;;5.60;99.90;;;;;;5074918;28;20111;-74
2022/03/15 00:03:42;;;;;;;82.50;27.15;;;5.60;99.90;;;;;;5074996;28;20024;-74
2022/03/15 00:06:08;;;;;;;140.10;28.13;;;5.60;99.90;;;;;;5074111;28;20035;-74
2022/03/15 00:08:34;;;;;;;111.32;24.83;;;5.60;99.90;;;;;;5074425;28;20082;-74
2022/03/15 00:11:04;;;;;;;75.93;23.80;;;5.60;99.90;;;;;;5074162;28;20027;-74
2022/03/15 00:13:31;;;;;;;76.65;24.38;;;5.60;99.90;;;;;;5074501;28;20345;-74
2022/03/15 00:15:58;;;;;;;64.00;24.23;;;5.50;99.90;;;;;;5074289;28;20029;-74
2022/03/15 00:18:24;;;;;;;143.00;25.08;;;5.50;99.90;;;;;;5074088;28;20477;-74
2022/03/15 00:20:50;;;;;;;74.38;24.55;;;5.50;99.90;;;;;;5074284;28;20039;-74
2022/03/15 00:23:15;;;;;;;100.90;25.13;;;5.50;99.90;;;;;;5074168;28;20031;-74
2022/03/15 00:25:41;;;;;;;59.40;21.42;;;5.50;99.90;;;;;;5073733;28;20396;-74
2022/03/15 00:28:07;;;;;;;152.82;25.92;;;5.40;99.90;;;;;;5073983;28;20020;-74
2022/03/15 00:30:32;;;;;;;112.00;24.17;;;5.40;99.90;;;;;;5074203;28;20024;-74
2022/03/15 00:32:58;;;;;;;108.88;22.98;;;5.40;99.90;;;;;;5074034;28;20111;-74
2022/03/15 00:35:25;;;;;;;102.10;24.75;;;5.40;99.90;;;;;;5073730;28;20040;-74
2022/03/15 00:37:53;;;;;;;162.25;25.02;;;5.40;99.90;;;;;;5074253;28;20465;-74
2022/03/15 00:40:21;;;;;;;154.05;25.42;;;5.40;99.90;;;;;;5074202;28;20052;-74
2022/03/15 00:42:49;;;;;;;92.13;22.75;;;5.40;99.90;;;;;;5073802;28;20028;-74
2022/03/15 00:45:16;;;;;;;94.45;23.90;;;5.40;99.90;;;;;;5074067;28;20392;-74
2022/03/15 00:47:42;;;;;;;142.85;24.92;;;5.40;99.90;;;;;;5074160;28;20357;-74
2022/03/15 00:50:07;;;;;;;81.40;23.02;;;5.50;99.90;;;;;;5073854;28;20046;-74
2022/03/15 00:52:33;;;;;;;105.65;23.60;;;5.40;99.90;;;;;;5074393;28;20028;-74
2022/03/15 00:55:00;;;;;;;84.43;20.75;;;5.40;99.90;;;;;;5073636;28;20033;-74
2022/03/15 00:57:25;;;;;;;120.35;22.98;;;5.40;99.90;;;;;;5073997;28;20021;-74
2022/03/15 00:59:51;;;;;;;67.60;19.65;;;5.40;99.90;;;;;;5073785;28;20024;-74
2022/03/15 01:02:17;;;;;;;72.28;20.98;;;5.40;99.90;;;;;;5073569;28;20078;-74
2022/03/15 01:04:43;;;;;;;72.05;23.40;;;5.40;99.90;;;;;;5073864;28;20029;-74
2022/03/15 01:07:12;;;;;;;58.03;21.50;;;5.40;99.90;;;;;;5074064;28;20021;-74
2022/03/15 01:09:38;;;;;;;114.80;22.88;;;5.40;99.90;;;;;;5072303;28;20395;-74
2022/03/15 01:12:04;;;;;;;65.20;22.75;;;5.40;99.90;;;;;;5073578;28;20107;-74
2022/03/15 01:14:29;;;;;;;68.03;21.60;;;5.40;99.90;;;;;;5073531;28;20063;-74
2022/03/15 01:16:55;;;;;;;123.65;23.40;;;5.40;99.90;;;;;;5072268;28;20021;-74
2022/03/15 01:19:22;;;;;;;121.32;22.05;;;5.40;99.90;;;;;;5073586;28;20025;-74
2022/03/15 01:21:49;;;;;;;158.90;22.23;;;5.40;99.90;;;;;;5073562;28;20112;-74
2022/03/15 01:24:14;;;;;;;62.78;19.83;;;5.40;99.90;;;;;;5074911;28;20024;-74
2022/03/15 01:26:40;;;;;;;206.10;24.13;;;5.40;99.90;;;;;;5077138;28;20028;-74
2022/03/15 01:29:06;;;;;;;87.85;20.33;;;5.40;99.90;;;;;;5077231;28;20017;-74
2022/03/15 01:31:32;;;;;;;149.98;22.38;;;5.40;99.90;;;;;;5077162;28;20027;-74
2022/03/15 01:33:57;;;;;;;71.60;21.20;;;5.30;99.90;;;;;;5077104;28;20031;-74
2022/03/15 01:36:24;;;;;;;71.60;20.33;;;5.30;99.90;;;;;;5077124;28;20395;-74
2022/03/15 01:38:53;;;;;;;63.50;20.58;;;5.30;99.90;;;;;;5077005;28;20104;-74
2022/03/15 01:41:21;;;;;;;96.82;20.02;;;5.30;99.90;;;;;;5077027;28;20032;-74
2022/03/15 01:43:47;;;;;;;126.38;20.65;;;5.20;99.90;;;;;;5075459;28;20092;-74
2022/03/15 01:46:13;;;;;;;183.63;20.05;;;5.20;99.90;;;;;;5076707;28;20025;-73
2022/03/15 01:48:39;;;;;;;70.68;20.38;;;5.20;99.90;;;;;;5077430;28;20054;-74
2022/03/15 01:51:06;;;;;;;142.00;19.92;;;5.20;99.90;;;;;;5076948;28;20107;-74
2022/03/15 01:53:32;;;;;;;139.63;19.35;;;5.20;99.90;;;;;;5076979;28;20027;-74
2022/03/15 01:55:59;;;;;;;61.97;20.33;;;5.10;99.90;;;;;;5076737;28;20024;-74
2022/03/15 01:58:26;;;;;;;97.25;18.67;;;5.20;99.90;;;;;;5076642;28;20078;-74
2022/03/15 02:00:52;;;;;;;58.70;18.80;;;5.20;99.90;;;;;;5076730;28;20024;-74
2022/03/15 02:03:17;;;;;;;120.53;19.48;;;5.10;99.90;;;;;;5075253;28;20495;-74
2022/03/15 02:05:43;;;;;;;59.83;17.08;;;5.10;99.90;;;;;;5076491;28;20388;-74
2022/03/15 02:08:13;;;;;;;164.65;20.08;;;5.10;99.90;;;;;;5076477;28;20024;-74
2022/03/15 02:10:39;;;;;;;115.80;17.67;;;5.10;99.90;;;;;;5076976;28;20019;-74
2022/03/15 02:13:05;;;;;;;348.00;23.25;;;5.10;99.90;;;;;;5075085;28;20486;-74
2022/03/15 02:15:31;;;;;;;91.40;16.10;;;5.10;99.90;;;;;;5076159;28;20374;-74
2022/03/15 02:17:57;;;;;;;124.35;18.58;;;5.10;99.90;;;;;;5076351;28;20050;-74
2022/03/15 02:20:23;;;;;;;186.38;17.10;;;5.00;99.90;;;;;;5076197;28;20083;-74
2022/03/15 02:22:49;;;;;;;188.95;16.17;;;5.00;99.90;;;;;;5076201;28;20034;-74
2022/03/15 02:25:14;;;;;;;92.82;14.70;;;5.00;99.90;;;;;;5076292;28;20392;-74
2022/03/15 02:27:40;;;;;;;82.82;12.93;;;5.00;99.90;;;;;;5075386;28;20025;-74
2022/03/15 02:30:06;;;;;;;61.90;13.70;;;5.00;99.90;;;;;;5076346;28;20052;-74
2022/03/15 02:32:32;;;;;;;246.98;16.95;;;4.90;99.90;;;;;;5074689;28;20024;-74
2022/03/15 02:34:58;;;;;;;46.50;14.10;;;4.90;99.90;;;;;;5075689;28;20050;-74
2022/03/15 02:37:24;;;;;;;89.15;14.55;;;5.00;99.90;;;;;;5075946;28;20029;-74
2022/03/15 02:39:50;;;;;;;94.88;14.65;;;5.00;99.90;;;;;;5075889;28;20529;-74
2022/03/15 02:42:16;;;;;;;38.83;12.70;;;5.00;99.90;;;;;;5075983;28;20028;-74
2022/03/15 02:44:41;;;;;;;152.38;15.82;;;5.00;99.90;;;;;;5075623;28;20472;-74
2022/03/15 02:47:07;;;;;;;174.23;19.00;;;5.00;99.90;;;;;;5076296;28;20052;-74
2022/03/15 02:49:33;;;;;;;106.32;15.63;;;5.00;99.90;;;;;;5075935;28;20413;-74
2022/03/15 02:51:58;;;;;;;123.18;16.88;;;5.00;99.90;;;;;;5074376;28;20024;-74
2022/03/15 02:54:24;;;;;;;98.63;17.50;;;5.00;99.90;;;;;;5075518;28;20021;-74
2022/03/15 02:56:50;;;;;;;125.28;17.17;;;5.10;99.90;;;;;;5074289;28;20021;-74
2022/03/15 02:59:16;;;;;;;86.05;17.38;;;5.10;99.90;;;;;;5074774;28;20042;-74
2022/03/15 03:01:47;;;;;;;86.25;16.05;;;5.10;99.90;;;;;;5075490;28;20017;-74
2022/03/15 03:04:14;;;;;;;139.02;17.98;;;5.20;99.90;;;;;;5074536;28;20031;-74
2022/03/15 03:06:42;;;;;;;63.67;15.73;;;5.10;99.90;;;;;;5073999;28;20428;-74
2022/03/15 03:09:11;;;;;;;195.13;17.25;;;5.10;99.90;;;;;;5075315;28;20051;-74
2022/03/15 03:11:37;;;;;;;283.25;20.88;;;5.20;99.90;;;;;;5075158;28;20019;-74
2022/03/15 03:14:04;;;;;;;140.85;19.02;;;5.10;99.90;;;;;;5074042;28;20028;-74
2022/03/15 03:16:30;;;;;;;192.45;18.60;;;5.10;99.90;;;;;;5075133;28;20017;-74
2022/03/15 03:18:58;;;;;;;197.68;18.35;;;5.10;99.90;;;;;;5075100;28;20028;-74
2022/03/15 03:21:28;;;;;;;189.57;19.65;;;5.20;99.90;;;;;;5075052;28;20031;-73
2022/03/15 03:23:55;;;;;;;56.60;16.10;;;5.10;99.90;;;;;;5074964;28;20032;-74
2022/03/15 03:26:24;;;;;;;95.68;18.58;;;5.20;99.90;;;;;;5075239;28;20115;-74
2022/03/15 03:28:50;;;;;;;130.07;19.38;;;5.20;99.90;;;;;;5075413;28;20059;-74
2022/03/15 03:31:16;;;;;;;107.70;20.60;;;5.10;99.90;;;;;;5074795;28;20052;-74
2022/03/15 03:33:42;;;;;;;197.43;23.63;;;5.20;99.90;;;;;;5074828;28;20058;-74
2022/03/15 03:36:09;;;;;;;65.75;19.08;;;5.20;99.90;;;;;;5074868;28;20024;-74
2022/03/15 03:38:36;;;;;;;78.80;22.25;;;5.20;99.90;;;;;;5074694;28;20020;-74
2022/03/15 03:41:02;;;;;;;102.20;21.00;;;5.20;99.90;;;;;;5074608;28;20027;-74
2022/03/15 03:43:28;;;;;;;120.82;22.77;;;5.20;99.90;;;;;;5075029;28;20032;-74
2022/03/15 03:45:54;;;;;;;80.00;22.33;;;5.20;99.90;;;;;;5074272;28;20020;-74
2022/03/15 03:48:20;;;;;;;90.57;22.50;;;5.20;99.90;;;;;;5074267;28;20070;-74
2022/03/15 03:50:46;;;;;;;76.63;22.55;;;5.20;99.90;;;;;;5073247;28;20108;-74
2022/03/15 03:53:11;;;;;;;73.63;19.95;;;5.20;99.90;;;;;;5074401;28;20073;-74
2022/03/15 03:55:37;;;;;;;86.40;21.75;;;5.20;99.90;;;;;;5074534;28;20028;-74
2022/03/15 03:58:03;;;;;;;68.05;20.98;;;5.20;99.90;;;;;;5074838;28;20051;-74
2022/03/15 04:00:29;;;;;;;147.63;24.48;;;5.20;99.90;;;;;;5074315;28;20028;-74
2022/03/15 04:02:59;;;;;;;111.18;21.67;;;5.10;99.90;;;;;;5074270;28;20024;-74
2022/03/15 04:05:25;;;;;;;96.35;20.60;;;5.20;99.90;;;;;;5074649;28;20025;-74
2022/03/15 04:07:51;;;;;;;81.72;18.77;;;5.20;99.90;;;;;;5074798;28;20104;-74
2022/03/15 04:10:21;;;;;;;80.93;20.02;;;5.10;99.90;;;;;;5074245;28;20060;-74
2022/03/15 04:12:47;;;;;;;81.75;19.15;;;5.20;99.90;;;;;;5074312;28;20051;-74
2022/03/15 04:15:13;;;;;;;70.25;18.48;;;5.20;99.90;;;;;;5074314;28;20028;-74
2022/03/15 04:17:38;;;;;;;94.70;21.02;;;5.20;99.90;;;;;;5074115;28;20017;-74
2022/03/15 04:20:05;;;;;;;57.22;17.25;;;5.20;99.90;;;;;;5074468;28;20046;-74
2022/03/15 04:22:31;;;;;;;92.53;20.40;;;5.20;99.90;;;;;;5074252;28;20028;-74
2022/03/15 04:24:56;;;;;;;85.22;19.25;;;5.20;99.90;;;;;;5074019;28;20035;-74
2022/03/15 04:27:22;;;;;;;76.40;19.67;;;5.20;99.90;;;;;;5074528;28;20028;-74
2022/03/15 04:29:47;;;;;;;88.57;19.20;;;5.20;99.90;;;;;;5073942;28;20032;-74
2022/03/15 04:32:14;;;;;;;74.63;17.95;;;5.10;99.90;;;;;;5073912;28;20477;-74
2022/03/15 04:34:39;;;;;;;78.93;18.05;;;5.10;99.90;;;;;;5074043;28;20031;-74
2022/03/15 04:37:05;;;;;;;67.78;19.25;;;5.20;99.90;;;;;;5074142;28;20025;-74
2022/03/15 04:39:30;;;;;;;85.88;19.30;;;5.20;99.90;;;;;;5073959;28;20020;-74
2022/03/15 04:41:56;;;;;;;64.55;18.23;;;5.10;99.90;;;;;;5074067;28;20029;-74
2022/03/15 04:44:22;;;;;;;65.63;17.10;;;5.20;99.90;;;;;;5073945;28;20052;-74
2022/03/15 04:46:48;;;;;;;76.85;17.95;;;5.20;99.90;;;;;;5074409;28;20480;-73
2022/03/15 04:49:13;;;;;;;70.55;17.13;;;5.10;99.90;;;;;;5074102;28;20098;-73
2022/03/15 04:51:39;;;;;;;75.63;18.90;;;5.10;99.90;;;;;;5074275;28;20098;-74
2022/03/15 04:54:05;;;;;;;56.35;15.43;;;5.00;99.90;;;;;;5072666;28;20048;-74
2022/03/15 04:56:30;;;;;;;101.40;20.58;;;5.10;99.90;;;;;;5073952;28;20029;-74
2022/03/15 04:58:56;;;;;;;65.00;16.60;;;5.10;99.90;;;;;;5077027;28;20032;-74
2022/03/15 05:01:22;;;;;;;104.82;18.08;;;5.20;99.90;;;;;;5077857;28;20066;-73
2022/03/15 05:03:47;;;;;;;75.10;16.08;;;5.10;99.90;;;;;;5078081;28;20036;-74
2022/03/15 05:06:13;;;;;;;94.40;15.63;;;5.00;99.90;;;;;;5077632;28;20021;-74
2022/03/15 05:08:38;;;;;;;61.88;14.95;;;5.00;99.90;;;;;;5077587;28;20017;-74
2022/03/15 05:11:07;;;;;;;64.07;14.55;;;5.00;99.90;;;;;;5077489;28;20017;-74
2022/03/15 05:13:46;;;;;;;72.38;15.65;;;4.90;99.90;;;;;;5077485;28;20052;-74
2022/03/15 05:16:18;;;;;;;74.68;15.82;;;4.90;99.90;;;;;;5077437;28;20025;-74
2022/03/15 05:18:45;;;;;;;77.07;15.30;;;5.00;99.90;;;;;;5077411;28;20109;-74
2022/03/15 05:21:14;;;;;;;86.72;16.35;;;4.90;99.90;;;;;;5077768;28;20031;-73
2022/03/15 05:23:40;;;;;;;88.57;14.75;;;4.90;99.90;;;;;;5077121;28;20020;-74
2022/03/15 05:26:06;;;;;;;73.60;15.57;;;4.90;99.90;;;;;;5077155;28;20135;-74
2022/03/15 05:28:32;;;;;;;65.68;14.75;;;4.90;99.90;;;;;;5077512;28;20489;-74
2022/03/15 05:30:57;;;;;;;55.83;17.08;;;4.90;99.90;;;;;;5077194;28;20036;-74
2022/03/15 05:33:23;;;;;;;63.47;15.20;;;4.90;99.90;;;;;;5077123;28;20028;-74
2022/03/15 05:35:49;;;;;;;103.88;17.95;;;4.90;99.90;;;;;;5077023;28;20025;-74
2022/03/15 05:38:14;;;;;;;89.20;18.55;;;5.00;99.90;;;;;;5077416;28;20104;-74
2022/03/15 05:40:40;;;;;;;219.30;21.70;;;4.90;99.90;;;;;;5077443;28;20021;-74
2022/03/15 05:43:05;;;;;;;161.68;19.30;;;5.00;99.90;;;;;;5076867;28;20075;-74
2022/03/15 05:45:32;;;;;;;112.93;18.88;;;4.90;99.90;;;;;;5076834;28;20039;-74
2022/03/15 05:47:58;;;;;;;166.52;19.80;;;4.90;99.90;;;;;;5077447;28;20090;-74
2022/03/15 05:50:23;;;;;;;264.95;21.17;;;5.00;99.90;;;;;;5076826;28;20492;-74
2022/03/15 05:52:49;;;;;;;253.10;20.88;;;5.00;99.90;;;;;;5076867;28;20464;-74
2022/03/15 05:55:15;;;;;;;185.63;19.67;;;4.90;99.90;;;;;;5076670;28;20078;-74
2022/03/15 05:57:40;;;;;;;78.03;17.10;;;4.90;99.90;;;;;;5075655;28;20070;-74
2022/03/15 06:00:07;;;;;;;116.68;19.00;;;4.90;99.90;;;;;;5076788;28;20035;-73
2022/03/15 06:02:33;;;;;;;36.88;15.23;;;4.90;99.90;;;;;;5076449;28;20031;-73
2022/03/15 06:05:03;;;;;;;219.45;20.33;;;4.90;99.90;;;;;;5076521;28;20033;-74
2022/03/15 06:07:29;;;;;;;33.97;15.35;;;4.80;99.90;;;;;;5076533;28;20058;-74
2022/03/15 06:09:56;;;;;;;49.03;17.02;;;4.90;99.90;;;;;;5074524;28;20076;-74
2022/03/15 06:12:23;;;;;;;51.88;14.35;;;4.90;99.90;;;;;;5076529;28;20091;-74
2022/03/15 06:14:49;;;;;;;59.78;18.10;;;5.00;99.90;;;;;;5076346;28;20020;-74
2022/03/15 06:17:14;;;;;;;58.65;17.83;;;5.00;99.90;;;;;;5076373;28;20028;-74
2022/03/15 06:19:40;;;;;;;58.42;18.05;;;5.00;99.90;;;;;;5076418;28;20029;-74
2022/03/15 06:22:05;;;;;;;76.43;17.10;;;5.10;99.90;;;;;;5076307;28;20044;-74
2022/03/15 06:24:31;;;;;;;135.63;21.00;;;5.10;99.90;;;;;;5075976;28;20025;-74
2022/03/15 06:26:58;;;;;;;110.32;21.65;;;5.10;99.90;;;;;;5076499;28;20040;-74
2022/03/15 06:29:25;;;;;;;223.57;23.25;;;5.10;99.90;;;;;;5076032;28;20032;-74
2022/03/15 06:31:51;;;;;;;115.15;21.70;;;5.10;99.90;;;;;;5076330;28;20072;-74
2022/03/15 06:34:16;;;;;;;109.50;23.67;;;5.20;99.90;;;;;;5076079;28;20052;-73
2022/03/15 06:36:42;;;;;;;80.82;22.85;;;5.20;99.90;;;;;;5075910;28;20074;-73
2022/03/15 06:39:08;;;;;;;92.28;22.33;;;5.20;99.90;;;;;;5076039;28;20032;-74
2022/03/15 06:41:38;;;;;;;105.78;22.85;;;5.20;99.90;;;;;;5075889;28;20396;-74
2022/03/15 06:44:05;;;;;;;64.38;21.35;;;5.10;99.90;;;;;;5076334;28;20056;-74
2022/03/15 06:46:31;;;;;;;143.00;24.40;;;5.10;99.90;;;;;;5075782;28;20021;-74
2022/03/15 06:48:57;;;;;;;132.43;23.67;;;5.10;99.90;;;;;;5075769;28;20135;-74
2022/03/15 06:51:23;;;;;;;68.72;22.65;;;5.20;99.90;;;;;;5075796;28;20479;-74
2022/03/15 06:53:48;;;;;;;102.45;22.77;;;5.10;99.90;;;;;;5075913;28;20111;-74
2022/03/15 06:56:14;;;;;;;75.20;22.25;;;5.20;99.90;;;;;;5075551;28;20035;-73
2022/03/15 06:58:40;;;;;;;92.60;22.50;;;5.20;99.90;;;;;;5075802;28;20048;-74
2022/03/15 07:01:05;;;;;;;65.95;22.15;;;5.20;99.90;;;;;;5075758;28;20090;-74
2022/03/15 07:03:31;;;;;;;90.20;23.58;;;5.20;99.90;;;;;;5075654;28;20031;-74
2022/03/15 07:05:57;;;;;;;67.22;20.27;;;5.30;99.90;;;;;;5075426;28;20024;-74
2022/03/15 07:08:22;;;;;;;128.75;24.58;;;5.20;99.90;;;;;;5075681;28;20025;-73
2022/03/15 07:10:48;;;;;;;137.00;23.15;;;5.20;99.90;;;;;;5075697;28;20013;-73
2022/03/15 07:13:14;;;;;;;70.50;19.00;;;5.20;99.90;;;;;;5075497;28;20142;-73
2022/03/15 07:15:39;;;;;;;65.43;19.95;;;5.20;99.90;;;;;;5075147;28;20025;-74
2022/03/15 07:18:05;;;;;;;124.47;21.92;;;5.20;99.90;;;;;;5075104;28;20020;-73
2022/03/15 07:20:30;;;;;;;78.85;20.63;;;5.20;99.90;;;;;;5074922;28;20064;-73
2022/03/15 07:22:56;;;;;;;103.65;20.85;;;5.20;99.90;;;;;;5074108;28;20036;-73
2022/03/15 07:25:22;;;;;;;87.57;20.15;;;5.20;99.90;;;;;;5074939;28;20399;-73
2022/03/15 07:27:48;;;;;;;56.20;19.95;;;5.20;99.90;;;;;;5074877;28;20022;-74
2022/03/15 07:30:15;;;;;;;75.13;20.23;;;5.30;99.90;;;;;;5074857;28;20039;-74
2022/03/15 07:32:40;;;;;;;64.32;19.88;;;5.30;99.90;;;;;;5074902;28;20025;-73
2022/03/15 07:35:06;;;;;;;94.43;21.58;;;5.40;99.90;;;;;;5074879;28;20182;-73
2022/03/15 07:37:32;;;;;;;74.25;18.30;;;5.50;99.90;;;;;;5075063;28;20108;-73
2022/03/15 07:39:58;;;;;;;249.75;23.02;;;5.50;99.90;;;;;;5074934;28;20052;-73
2022/03/15 07:42:25;;;;;;;242.48;16.45;;;5.50;99.90;;;;;;5075046;28;20036;-73
2022/03/15 07:44:51;;;;;;;70.20;16.60;;;5.50;99.90;;;;;;5074784;28;20016;-73
2022/03/15 07:47:16;;;;;;;90.03;16.60;;;5.40;99.90;;;;;;5074503;28;20438;-74
2022/03/15 07:49:43;;;;;;;75.38;15.95;;;5.40;99.90;;;;;;5074465;28;20056;-73
2022/03/15 07:52:09;;;;;;;166.63;19.77;;;5.50;99.90;;;;;;5074600;28;20507;-74
2022/03/15 07:54:35;;;;;;;252.15;23.77;;;5.50;99.90;;;;;;5074653;28;20384;-74
2022/03/15 07:57:01;;;;;;;288.08;24.08;;;5.50;99.90;;;;;;5073210;28;20020;-74
2022/03/15 07:59:28;;;;;;;69.63;16.45;;;5.50;99.90;;;;;;5074618;28;20146;-74
2022/03/15 08:01:53;;;;;;;60.40;17.80;;;5.50;99.90;;;;;;5074594;28;20479;-74
2022/03/15 08:04:19;;;;;;;232.73;23.40;;;5.60;99.90;;;;;;5074304;28;20025;-73
2022/03/15 08:06:45;;;;;;;126.55;21.95;;;5.60;99.90;;;;;;5074289;28;20024;-76
2022/03/15 08:09:11;;;;;;;157.80;20.88;;;5.60;99.90;;;;;;5074569;28;20409;-73
2022/03/15 08:11:37;;;;;;;125.38;22.85;;;5.70;99.90;;;;;;5074663;28;20027;-73
2022/03/15 08:14:03;;;;;;;269.20;26.45;;;5.60;99.90;;;;;;5074350;28;20028;-73
2022/03/15 08:16:28;;;;;;;134.10;24.23;;;5.70;99.90;;;;;;5074042;28;20070;-73
2022/03/15 08:18:55;;;;;;;192.63;26.23;;;5.70;99.90;;;;;;5074187;28;20028;-73
2022/03/15 08:21:22;;;;;;;138.05;28.85;;;5.80;99.90;;;;;;5074624;28;20021;-73
2022/03/15 08:23:48;;;;;;;96.05;26.73;;;5.80;99.90;;;;;;5073947;28;20024;-73
2022/03/15 08:26:15;;;;;;;145.70;31.08;;;5.90;99.90;;;;;;5072719;28;20389;-73
2022/03/15 08:28:41;;;;;;;63.03;27.70;;;6.00;99.90;;;;;;5074026;28;20020;-73
2022/03/15 08:31:07;;;;;;;165.75;29.23;;;6.00;99.90;;;;;;5074159;28;20361;-74
2022/03/15 08:33:32;;;;;;;356.05;33.55;;;6.20;99.90;;;;;;5073618;28;20032;-74
2022/03/15 08:35:58;;;;;;;112.35;30.05;;;6.20;99.90;;;;;;5073880;28;20027;-73
2022/03/15 08:38:25;;;;;;;219.35;32.50;;;6.10;99.90;;;;;;5074166;28;20119;-73
2022/03/15 08:40:51;;;;;;;111.47;32.55;;;6.10;99.90;;;;;;5074335;28;20384;-73
2022/03/15 08:43:17;;;;;;;98.35;32.85;;;6.30;99.90;;;;;;5073840;28;20056;-73
2022/03/15 08:45:43;;;;;;;136.00;33.42;;;6.40;99.90;;;;;;5073814;28;20032;-73
2022/03/15 08:48:08;;;;;;;189.07;27.33;;;6.50;99.90;;;;;;5074161;28;20023;-73
2022/03/15 08:50:34;;;;;;;61.35;25.73;;;6.50;99.90;;;;;;5073902;28;20067;-73
2022/03/15 08:53:00;;;;;;;76.50;26.92;;;6.30;99.90;;;;;;5073843;28;20083;-73
2022/03/15 08:55:30;;;;;;;63.80;30.40;;;6.50;99.90;;;;;;5073794;28;20028;-73
2022/03/15 08:57:56;;;;;;;153.30;33.13;;;6.40;99.90;;;;;;5074438;28;20023;-73
2022/03/15 09:00:22;;;;;;;131.55;34.35;;;6.40;99.90;;;;;;5073757;28;20361;-73
2022/03/15 09:02:48;;;;;;;217.98;33.92;;;6.50;99.90;;;;;;5073708;28;20039;-73
2022/03/15 09:05:18;;;;;;;217.65;34.70;;;6.50;99.90;;;;;;5072308;28;20419;-73
2022/03/15 09:07:46;;;;;;;101.30;35.42;;;6.50;99.90;;;;;;5074004;28;20495;-73
2022/03/15 09:10:12;;;;;;;226.80;37.08;;;6.50;99.90;;;;;;5074179;28;20021;-73
2022/03/15 09:12:37;;;;;;;91.55;33.33;;;6.60;99.90;;;;;;5073689;28;20373;-73
2022/03/15 09:15:03;;;;;;;108.70;34.00;;;6.50;99.90;;;;;;5073808;28;20046;-73
2022/03/15 09:17:29;;;;;;;233.00;35.72;;;6.60;99.90;;;;;;5073885;28;20052;-73
2022/03/15 09:19:54;;;;;;;137.27;33.42;;;6.60;99.90;;;;;;5073615;28;20051;-73
2022/03/15 09:22:20;;;;;;;86.65;33.28;;;6.60;99.90;;;;;;5073720;28;20032;-74
2022/03/15 09:24:46;;;;;;;85.05;32.15;;;6.60;99.90;;;;;;5073552;28;21012;-74
2022/03/15 09:27:12;;;;;;;124.80;33.55;;;6.50;99.90;;;;;;5074090;28;20027;-74
2022/03/15 09:29:38;;;;;;;76.28;33.88;;;6.50;99.90;;;;;;5073452;28;20024;-73
2022/03/15 09:32:05;;;;;;;177.32;37.05;;;6.70;99.90;;;;;;5074449;28;20020;-74
2022/03/15 09:34:30;;;;;;;120.35;34.50;;;6.70;99.90;;;;;;5074180;28;20426;-73
2022/03/15 09:36:57;;;;;;;83.25;36.40;;;6.50;99.90;;;;;;5073430;28;20257;-73
2022/03/15 09:39:23;;;;;;;79.20;37.33;;;6.70;99.90;;;;;;5073655;28;20074;-73
2022/03/15 09:41:50;;;;;;;83.65;35.10;;;6.80;99.90;;;;;;5073385;28;20029;-74
2022/03/15 09:44:18;;;;;;;92.50;34.92;;;6.80;99.90;;;;;;5073345;28;20031;-73
2022/03/15 09:46:50;;;;;;;92.72;35.58;;;6.80;99.90;;;;;;5076934;28;20453;-73
2022/03/15 09:49:18;;;;;;;91.57;37.20;;;6.70;99.90;;;;;;5076960;28;20028;-73
2022/03/15 09:51:44;;;;;;;75.70;35.55;;;6.70;99.90;;;;;;5077005;28;20108;-73
2022/03/15 09:54:09;;;;;;;72.90;33.13;;;6.90;99.90;;;;;;5076873;28;20067;-73
2022/03/15 09:56:40;;;;;;;88.78;36.60;;;7.00;99.90;;;;;;5077095;28;20039;-73
2022/03/15 09:59:19;;;;;;;80.45;34.90;;;7.10;99.90;;;;;;5077262;28;20476;-73
2022/03/15 10:01:50;;;;;;;74.88;33.75;;;7.10;99.90;;;;;;5076946;28;20468;-73
2022/03/15 10:04:16;;;;;;;74.22;31.02;;;7.30;99.90;;;;;;5076524;28;20031;-73
2022/03/15 10:06:42;;;;;;;67.95;33.28;;;7.40;99.90;;;;;;5076460;28;20024;-73
2022/03/15 10:09:08;;;;;;;80.90;32.75;;;7.40;99.90;;;;;;5077086;28;20102;-73
2022/03/15 10:11:35;;;;;;;75.00;32.75;;;7.50;99.90;;;;;;5076828;28;20020;-73
2022/03/15 10:14:01;;;;;;;71.68;32.42;;;7.70;99.90;;;;;;5076594;28;20385;-73
2022/03/15 10:16:41;;;;;;;60.70;29.33;;;7.90;99.90;;;;;;5076548;28;20033;-73
2022/03/15 10:19:12;;;;;;;63.58;30.00;;;8.20;99.90;;;;;;5076254;28;20527;-73
2022/03/15 10:21:40;;;;;;;55.88;28.27;;;8.30;99.90;;;;;;5076619;28;20392;-73
2022/03/15 10:24:08;;;;;;;62.75;26.10;;;8.50;99.90;;;;;;5076517;28;20036;-73
2022/03/15 10:26:39;;;;;;;64.43;26.67;;;8.70;99.90;;;;;;5076029;28;20033;-73
2022/03/15 10:29:11;;;;;;;63.03;26.42;;;8.50;99.90;;;;;;5075002;28;20028;-72
2022/03/15 10:31:37;;;;;;;57.30;27.17;;;8.90;99.90;;;;;;5076150;28;20039;-72
2022/03/15 10:34:05;;;;;;;44.70;20.88;;;9.10;99.90;;;;;;5076396;28;20024;-72
2022/03/15 10:36:40;;;;;;;42.97;19.92;;;9.20;99.90;;;;;;5076055;28;20086;-73
2022/03/15 10:39:07;;;;;;;51.67;19.05;;;9.50;99.90;;;;;;5076391;28;20095;-73
2022/03/15 10:41:48;;;;;;;40.88;17.77;;;9.50;99.90;;;;;;5076228;28;20028;-73
2022/03/15 10:44:26;;;;;;;48.67;17.33;;;9.70;99.90;;;;;;5075848;28;20035;-73
2022/03/15 10:47:04;;;;;;;48.47;17.80;;;9.70;99.90;;;;;;5076155;28;20400;-73
2022/03/15 10:49:31;;;;;;;37.65;16.52;;;9.80;99.90;;;;;;5075823;28;20078;-73
2022/03/15 10:51:57;;;;;;;52.47;16.02;;;10.20;99.90;;;;;;5075762;28;20035;-73
2022/03/15 10:54:27;;;;;;;47.83;15.38;;;10.50;99.90;;;;;;5075724;28;20055;-73
2022/03/15 10:56:58;;;;;;;30.90;14.52;;;10.70;99.90;;;;;;5075546;28;20066;-73
2022/03/15 10:59:24;;;;;;;36.55;12.73;;;11.00;99.90;;;;;;5075602;28;20029;-74
2022/03/15 11:01:51;;;;;;;40.55;12.85;;;11.20;99.90;;;;;;5075796;28;20469;-73
2022/03/15 11:04:17;;;;;;;29.20;11.00;;;11.40;99.90;;;;;;5075788;28;20516;-73
2022/03/15 11:06:48;;;;;;;26.73;9.00;;;11.50;99.90;;;;;;5075318;28;20017;-73
2022/03/15 11:09:28;;;;;;;25.48;9.25;;;11.40;99.90;;;;;;5075617;28;20017;-73
2022/03/15 11:12:03;;;;;;;30.35;8.93;;;11.50;99.90;;;;;;5074155;28;20028;-73
2022/03/15 11:14:39;;;;;;;22.88;9.32;;;11.70;99.90;;;;;;5075290;28;20028;-73
2022/03/15 11:17:09;;;;;;;22.02;8.63;;;12.10;99.90;;;;;;5075454;28;20021;-73
2022/03/15 11:19:40;;;;;;;24.35;8.15;;;12.20;99.90;;;;;;5075133;28;20028;-73
2022/03/15 11:22:06;;;;;;;26.17;9.23;;;12.10;99.90;;;;;;5075188;28;20024;-73
2022/03/15 11:24:37;;;;;;;31.05;6.88;;;12.10;99.90;;;;;;5074883;28;20025;-73
2022/03/15 11:27:06;;;;;;;18.15;7.35;;;12.20;99.90;;;;;;5075548;28;20031;-73
2022/03/15 11:29:32;;;;;;;18.73;7.45;;;12.40;99.90;;;;;;5075419;28;20024;-73
2022/03/15 11:31:59;;;;;;;22.77;9.18;;;12.50;99.90;;;;;;5074842;28;20017;-73
2022/03/15 11:34:25;;;;;;;17.45;6.82;;;12.60;99.90;;;;;;5075276;28;20385;-73
2022/03/15 11:36:52;;;;;;;22.95;8.90;;;12.60;99.90;;;;;;5074932;28;20021;-73
2022/03/15 11:39:19;;;;;;;31.75;10.52;;;12.80;99.90;;;;;;5074983;28;20029;-73
2022/03/15 11:41:46;;;;;;;27.77;8.23;;;13.10;99.90;;;;;;5074885;28;20024;-73
2022/03/15 11:44:14;;;;;;;21.02;7.65;;;13.10;99.90;;;;;;5074607;28;20074;-73
2022/03/15 11:46:50;;;;;;;32.03;8.90;;;13.30;99.90;;;;;;5075039;28;20067;-73
2022/03/15 11:49:23;;;;;;;22.73;7.78;;;13.40;99.90;;;;;;5074670;28;20096;-74
2022/03/15 11:52:25;;;;;;;28.40;8.50;;;13.70;99.90;;;;;;5075141;28;20048;-74
2022/03/15 11:55:02;;;;;;;33.40;7.85;;;14.40;99.90;;;;;;5067138;28;20037;-73
2022/03/15 11:57:41;;;;;;;24.05;7.60;;;14.70;99.90;;;;;;5073649;28;20111;-74
2022/03/15 12:00:07;;;;;;;17.88;6.47;;;14.60;99.90;;;;;;5074453;28;20476;-74
2022/03/15 12:02:41;;;;;;;21.85;7.13;;;15.10;99.90;;;;;;5074525;28;20088;-75
2022/03/15 12:05:17;;;;;;;23.30;7.32;;;15.00;99.90;;;;;;5074527;28;20024;-75
2022/03/15 12:08:13;;;;;;;28.50;8.27;;;14.90;99.90;;;;;;5073834;28;20048;-74
2022/03/15 12:10:51;;;;;;;18.70;5.32;;;14.90;99.90;;;;;;5072083;28;20506;-76
2022/03/15 12:13:17;;;;;;;26.70;6.03;;;15.20;99.90;;;;;;5073089;28;20094;-75
2022/03/15 12:15:45;;;;;;;21.17;5.88;;;15.30;99.90;;;;;;5074538;28;20464;-75
2022/03/15 12:21:02;;;;;;;23.08;6.25;;;15.40;99.90;;;;;;5074412;28;20021;-74
2022/03/15 12:23:39;;;;;;;20.90;5.40;;;15.40;99.90;;;;;;5072780;28;20613;-74
2022/03/15 12:26:14;;;;;;;23.23;5.80;;;15.40;99.90;;;;;;5073949;28;20024;-74
2022/03/15 12:28:40;;;;;;;22.15;5.25;;;15.50;99.90;;;;;;5074400;28;20498;-74
2022/03/15 12:31:09;;;;;;;21.83;5.68;;;16.20;99.90;;;;;;5074172;28;20103;-74
2022/03/15 12:33:36;;;;;;;30.73;6.65;;;16.40;99.90;;;;;;5073984;28;20134;-74
2022/03/15 12:36:03;;;;;;;27.77;5.85;;;16.60;99.90;;;;;;5074114;28;20040;-74